Schedule Details


Flight Number: CTN345
Departure: Sarajevo (LQSA) at 16:15
Arrival: Franjo Tudman (LDZA) at 17:05
Route: BOSNA L608 KOMAR L187 TEBLI

Weather Information
LQSA 190900Z VRB01KT 9999 SCT052 06/02 Q1021 NOSIG
LDZA 190900Z VRB01KT CAVOK 08/02 Q1022 NOSIG
Schedule Frequency

Route Map